Time,TemperatureF,DewpointF,PressureIn,WindDirection,WindDirectionDegrees,WindSpeedMPH,WindSpeedGustMPH,Humidity,HourlyPrecipIn,Conditions,Clouds,dailyrainin,SoftwareType,DateUTC
2013-02-09 00:00:00,14.0,6.0,-100.00,South,178,40.0,56.0,71,-99.99,,,-99.99,,2013-02-09 07:00:00,
2013-02-09 00:42:00,14.0,6.0,-100.00,South,178,40.0,56.0,71,-99.99,,,-99.99,,2013-02-09 07:42:00,
2013-02-09 00:52:00,14.0,6.0,-100.00,South,178,40.0,56.0,71,-99.99,,,-99.99,,2013-02-09 07:52:00,
2013-02-09 01:00:00,13.0,7.0,-100.00,South,178,32.0,51.0,77,-99.99,,,-99.99,,2013-02-09 08:00:00,
2013-02-09 01:42:00,13.0,7.0,-100.00,South,178,32.0,51.0,77,-99.99,,,-99.99,,2013-02-09 08:42:00,
2013-02-09 01:52:00,13.0,7.0,-100.00,South,178,32.0,51.0,77,-99.99,,,-99.99,,2013-02-09 08:52:00,
2013-02-09 02:00:00,12.0,8.0,-100.00,South,176,34.0,55.0,83,-99.99,,,-99.99,,2013-02-09 09:00:00,
2013-02-09 02:42:00,12.0,8.0,-100.00,South,176,34.0,55.0,83,-99.99,,,-99.99,,2013-02-09 09:42:00,
2013-02-09 02:52:00,12.0,8.0,-100.00,South,176,34.0,55.0,83,-99.99,,,-99.99,,2013-02-09 09:52:00,
2013-02-09 03:00:00,11.0,8.0,-100.00,South,177,42.0,61.0,87,-99.99,,,-99.99,,2013-02-09 10:00:00,
2013-02-09 03:42:00,11.0,8.0,-100.00,South,177,42.0,61.0,87,-99.99,,,-99.99,,2013-02-09 10:42:00,
2013-02-09 03:52:00,11.0,8.0,-100.00,South,177,42.0,61.0,87,-99.99,,,-99.99,,2013-02-09 10:52:00,
2013-02-09 04:00:00,11.0,7.0,-100.00,South,178,47.0,71.0,85,-99.99,,,-99.99,,2013-02-09 11:00:00,
2013-02-09 04:42:00,11.0,7.0,-100.00,South,178,47.0,71.0,85,-99.99,,,-99.99,,2013-02-09 11:42:00,
2013-02-09 04:52:00,11.0,7.0,-100.00,South,178,47.0,71.0,85,-99.99,,,-99.99,,2013-02-09 11:52:00,
2013-02-09 05:00:00,10.0,8.0,-100.00,South,177,40.0,60.0,88,-99.99,,,-99.99,,2013-02-09 12:00:00,
2013-02-09 05:42:00,10.0,8.0,-100.00,South,177,40.0,60.0,88,-99.99,,,-99.99,,2013-02-09 12:42:00,
2013-02-09 05:52:00,10.0,8.0,-100.00,South,177,40.0,60.0,88,-99.99,,,-99.99,,2013-02-09 12:52:00,
2013-02-09 06:00:00,10.0,8.0,-100.00,South,176,32.0,59.0,91,-99.99,,,-99.99,,2013-02-09 13:00:00,
2013-02-09 06:42:00,10.0,8.0,-100.00,South,176,32.0,59.0,91,-99.99,,,-99.99,,2013-02-09 13:42:00,
2013-02-09 06:52:00,10.0,8.0,-100.00,South,176,32.0,59.0,91,-99.99,,,-99.99,,2013-02-09 13:52:00,
2013-02-09 07:00:00,9.0,7.0,-100.00,South,180,26.0,48.0,91,-99.99,,,-99.99,,2013-02-09 14:00:00,
2013-02-09 07:42:00,9.0,7.0,-100.00,South,180,26.0,48.0,91,-99.99,,,-99.99,,2013-02-09 14:42:00,
2013-02-09 07:52:00,9.0,7.0,-100.00,South,180,26.0,48.0,91,-99.99,,,-99.99,,2013-02-09 14:52:00,
2013-02-09 08:00:00,8.0,6.0,-100.00,NNW,334,6.0,20.0,92,-99.99,,,-99.99,,2013-02-09 15:00:00,
2013-02-09 08:42:00,8.0,6.0,-100.00,NNW,334,6.0,20.0,92,-99.99,,,-99.99,,2013-02-09 15:42:00,
2013-02-09 08:52:00,8.0,6.0,-100.00,NNW,334,6.0,20.0,92,-99.99,,,-99.99,,2013-02-09 15:52:00,
2013-02-09 09:00:00,8.0,6.0,-100.00,South,180,15.0,31.0,91,-99.99,,,-99.99,,2013-02-09 16:00:00,
2013-02-09 09:42:00,8.0,6.0,-100.00,South,180,15.0,31.0,91,-99.99,,,-99.99,,2013-02-09 16:42:00,
2013-02-09 09:52:00,8.0,6.0,-100.00,South,180,15.0,31.0,91,-99.99,,,-99.99,,2013-02-09 16:52:00,
2013-02-09 10:00:00,7.0,5.0,-100.00,South,185,9.0,22.0,90,-99.99,,,-99.99,,2013-02-09 17:00:00,
2013-02-09 10:42:00,7.0,5.0,-100.00,South,185,9.0,22.0,90,-99.99,,,-99.99,,2013-02-09 17:42:00,
2013-02-09 10:52:00,7.0,5.0,-100.00,South,185,9.0,22.0,90,-99.99,,,-99.99,,2013-02-09 17:52:00,
2013-02-09 11:00:00,8.0,6.0,-100.00,South,179,10.0,21.0,89,-99.99,,,-99.99,,2013-02-09 18:00:00,
2013-02-09 11:42:00,8.0,6.0,-100.00,South,179,10.0,21.0,89,-99.99,,,-99.99,,2013-02-09 18:42:00,
2013-02-09 11:52:00,8.0,6.0,-100.00,South,179,10.0,21.0,89,-99.99,,,-99.99,,2013-02-09 18:52:00,
2013-02-09 12:00:00,9.0,6.0,-100.00,NNW,331,9.0,16.0,88,-99.99,,,-99.99,,2013-02-09 19:00:00,
2013-02-09 12:42:00,9.0,6.0,-100.00,NNW,331,9.0,16.0,88,-99.99,,,-99.99,,2013-02-09 19:42:00,
2013-02-09 12:52:00,9.0,6.0,-100.00,NNW,331,9.0,16.0,88,-99.99,,,-99.99,,2013-02-09 19:52:00,
2013-02-09 13:00:00,9.0,7.0,-100.00,North,6,6.0,10.0,88,-99.99,,,-99.99,,2013-02-09 20:00:00,
2013-02-09 13:42:00,9.0,7.0,-100.00,North,6,6.0,10.0,88,-99.99,,,-99.99,,2013-02-09 20:42:00,
2013-02-09 13:52:00,9.0,7.0,-100.00,North,6,6.0,10.0,88,-99.99,,,-99.99,,2013-02-09 20:52:00,
2013-02-09 14:00:00,9.0,6.0,-100.00,NNW,338,10.0,20.0,89,-99.99,,,-99.99,,2013-02-09 21:00:00,
2013-02-09 14:42:00,9.0,6.0,-100.00,NNW,338,10.0,20.0,89,-99.99,,,-99.99,,2013-02-09 21:42:00,
2013-02-09 14:52:00,9.0,6.0,-100.00,NNW,338,10.0,20.0,89,-99.99,,,-99.99,,2013-02-09 21:52:00,
2013-02-09 15:00:00,7.0,5.0,-100.00,North,353,13.0,19.0,90,-99.99,,,-99.99,,2013-02-09 22:00:00,
2013-02-09 15:42:00,7.0,5.0,-100.00,North,353,13.0,19.0,90,-99.99,,,-99.99,,2013-02-09 22:42:00,
2013-02-09 15:52:00,7.0,5.0,-100.00,North,353,13.0,19.0,90,-99.99,,,-99.99,,2013-02-09 22:52:00,
2013-02-09 16:00:00,6.0,4.0,-100.00,NNW,348,15.0,24.0,90,-99.99,,,-99.99,,2013-02-09 23:00:00,
2013-02-09 16:42:00,6.0,4.0,-100.00,NNW,348,15.0,24.0,90,-99.99,,,-99.99,,2013-02-09 23:42:00,
2013-02-09 16:52:00,6.0,4.0,-100.00,NNW,348,15.0,24.0,90,-99.99,,,-99.99,,2013-02-09 23:52:00,
2013-02-09 17:00:00,6.0,4.0,-100.00,NNW,340,15.0,23.0,91,-99.99,,,-99.99,,2013-02-10 00:00:00,
2013-02-09 17:42:00,6.0,4.0,-100.00,NNW,340,15.0,23.0,91,-99.99,,,-99.99,,2013-02-10 00:42:00,
2013-02-09 17:52:00,6.0,4.0,-100.00,NNW,340,15.0,23.0,91,-99.99,,,-99.99,,2013-02-10 00:52:00,
2013-02-09 18:00:00,5.0,3.0,-100.00,WNW,303,8.0,17.0,90,-99.99,,,-99.99,,2013-02-10 01:00:00,
2013-02-09 18:42:00,5.0,3.0,-100.00,WNW,303,8.0,17.0,90,-99.99,,,-99.99,,2013-02-10 01:42:00,
2013-02-09 18:52:00,5.0,3.0,-100.00,WNW,303,8.0,17.0,90,-99.99,,,-99.99,,2013-02-10 01:52:00,
2013-02-09 19:00:00,4.0,1.0,-100.00,WSW,245,5.0,18.0,90,-99.99,,,-99.99,,2013-02-10 02:00:00,
2013-02-09 19:42:00,4.0,1.0,-100.00,WSW,245,5.0,18.0,90,-99.99,,,-99.99,,2013-02-10 02:42:00,
2013-02-09 19:52:00,4.0,1.0,-100.00,WSW,245,5.0,18.0,90,-99.99,,,-99.99,,2013-02-10 02:52:00,
2013-02-09 20:00:00,3.0,1.0,-100.00,NW,306,9.0,22.0,90,-99.99,,,-99.99,,2013-02-10 03:00:00,
2013-02-09 20:42:00,3.0,1.0,-100.00,NW,306,9.0,22.0,90,-99.99,,,-99.99,,2013-02-10 03:42:00,
2013-02-09 20:52:00,3.0,1.0,-100.00,NW,306,9.0,22.0,90,-99.99,,,-99.99,,2013-02-10 03:52:00,
2013-02-09 21:00:00,4.0,1.0,-100.00,NNW,333,14.0,24.0,90,-99.99,,,-99.99,,2013-02-10 04:00:00,
2013-02-09 21:42:00,4.0,1.0,-100.00,NNW,333,14.0,24.0,90,-99.99,,,-99.99,,2013-02-10 04:42:00,
2013-02-09 21:52:00,4.0,1.0,-100.00,NNW,333,14.0,24.0,90,-99.99,,,-99.99,,2013-02-10 04:52:00,
2013-02-09 22:00:00,3.0,1.0,-100.00,NW,324,8.0,17.0,90,-99.99,,,-99.99,,2013-02-10 05:00:00,
2013-02-09 22:42:00,3.0,1.0,-100.00,NW,324,8.0,17.0,90,-99.99,,,-99.99,,2013-02-10 05:42:00,
2013-02-09 22:52:00,3.0,1.0,-100.00,NW,324,8.0,17.0,90,-99.99,,,-99.99,,2013-02-10 05:52:00,
2013-02-09 23:00:00,2.0,0.0,-100.00,North,349,13.0,19.0,89,-99.99,,,-99.99,,2013-02-10 06:00:00,
2013-02-09 23:42:00,2.0,0.0,-100.00,North,349,13.0,19.0,89,-99.99,,,-99.99,,2013-02-10 06:42:00,
2013-02-09 23:52:00,2.0,0.0,-100.00,North,349,13.0,19.0,89,-99.99,,,-99.99,,2013-02-10 06:52:00,